sensor_id;sensor_type;location;lat;lon;timestamp;P1;durP1;ratioP1;P2;durP2;ratioP2
25153;SDS011;47555;51.038;6.280;2023-04-03T00:00:32;8.27;;;6.20;;
25153;SDS011;47555;51.038;6.280;2023-04-03T00:02:57;11.80;;;5.95;;
25153;SDS011;47555;51.038;6.280;2023-04-03T00:05:23;7.78;;;6.13;;
25153;SDS011;47555;51.038;6.280;2023-04-03T00:07:49;9.40;;;5.63;;
25153;SDS011;47555;51.038;6.280;2023-04-03T00:10:14;7.45;;;5.50;;
25153;SDS011;47555;51.038;6.280;2023-04-03T00:12:40;7.90;;;5.80;;
25153;SDS011;47555;51.038;6.280;2023-04-03T00:15:06;10.52;;;6.03;;
25153;SDS011;47555;51.038;6.280;2023-04-03T00:17:33;7.05;;;5.57;;
25153;SDS011;47555;51.038;6.280;2023-04-03T00:20:00;7.38;;;5.63;;
25153;SDS011;47555;51.038;6.280;2023-04-03T00:22:25;9.48;;;5.43;;
25153;SDS011;47555;51.038;6.280;2023-04-03T00:24:53;11.40;;;6.40;;
25153;SDS011;47555;51.038;6.280;2023-04-03T00:27:19;8.05;;;5.15;;
25153;SDS011;47555;51.038;6.280;2023-04-03T00:29:45;6.13;;;5.05;;
25153;SDS011;47555;51.038;6.280;2023-04-03T00:32:10;6.40;;;5.32;;
25153;SDS011;47555;51.038;6.280;2023-04-03T00:34:36;5.80;;;4.95;;
25153;SDS011;47555;51.038;6.280;2023-04-03T00:37:01;6.20;;;5.53;;
25153;SDS011;47555;51.038;6.280;2023-04-03T00:39:27;8.40;;;5.47;;
25153;SDS011;47555;51.038;6.280;2023-04-03T00:41:52;7.97;;;5.53;;
25153;SDS011;47555;51.038;6.280;2023-04-03T00:46:53;7.93;;;5.93;;
25153;SDS011;47555;51.038;6.280;2023-04-03T00:49:18;7.35;;;5.07;;
25153;SDS011;47555;51.038;6.280;2023-04-03T00:51:44;8.63;;;5.35;;
25153;SDS011;47555;51.038;6.280;2023-04-03T00:54:10;6.57;;;5.70;;
25153;SDS011;47555;51.038;6.280;2023-04-03T00:56:37;8.13;;;4.95;;
25153;SDS011;47555;51.038;6.280;2023-04-03T00:59:17;7.28;;;5.70;;
25153;SDS011;47555;51.038;6.280;2023-04-03T01:01:55;8.57;;;5.47;;
25153;SDS011;47555;51.038;6.280;2023-04-03T01:04:28;6.78;;;5.45;;
25153;SDS011;47555;51.038;6.280;2023-04-03T01:06:57;9.98;;;6.10;;
25153;SDS011;47555;51.038;6.280;2023-04-03T01:09:26;8.75;;;5.57;;
25153;SDS011;47555;51.038;6.280;2023-04-03T01:11:53;7.38;;;5.57;;
25153;SDS011;47555;51.038;6.280;2023-04-03T01:14:18;10.68;;;5.53;;
25153;SDS011;47555;51.038;6.280;2023-04-03T01:16:53;7.25;;;5.38;;
25153;SDS011;47555;51.038;6.280;2023-04-03T01:19:19;7.18;;;5.60;;
25153;SDS011;47555;51.038;6.280;2023-04-03T01:24:48;6.10;;;5.50;;
25153;SDS011;47555;51.038;6.280;2023-04-03T01:27:13;9.13;;;5.53;;
25153;SDS011;47555;51.038;6.280;2023-04-03T01:29:40;7.03;;;5.68;;
25153;SDS011;47555;51.038;6.280;2023-04-03T01:32:08;7.38;;;5.63;;
25153;SDS011;47555;51.038;6.280;2023-04-03T01:34:33;7.80;;;5.60;;
25153;SDS011;47555;51.038;6.280;2023-04-03T01:36:59;7.50;;;5.72;;
25153;SDS011;47555;51.038;6.280;2023-04-03T01:39:25;10.30;;;6.65;;
25153;SDS011;47555;51.038;6.280;2023-04-03T01:41:50;9.38;;;6.10;;
25153;SDS011;47555;51.038;6.280;2023-04-03T01:44:16;9.52;;;6.22;;
25153;SDS011;47555;51.038;6.280;2023-04-03T01:46:42;9.23;;;6.47;;
25153;SDS011;47555;51.038;6.280;2023-04-03T01:49:07;10.77;;;6.15;;
25153;SDS011;47555;51.038;6.280;2023-04-03T01:51:33;9.65;;;7.03;;
25153;SDS011;47555;51.038;6.280;2023-04-03T01:53:59;10.30;;;6.53;;
25153;SDS011;47555;51.038;6.280;2023-04-03T01:56:24;14.00;;;7.38;;
25153;SDS011;47555;51.038;6.280;2023-04-03T01:58:50;11.63;;;8.35;;
25153;SDS011;47555;51.038;6.280;2023-04-03T02:01:15;16.05;;;8.68;;
25153;SDS011;47555;51.038;6.280;2023-04-03T02:03:41;13.45;;;9.02;;
25153;SDS011;47555;51.038;6.280;2023-04-03T02:06:06;16.70;;;10.38;;
25153;SDS011;47555;51.038;6.280;2023-04-03T02:08:32;17.58;;;11.15;;
25153;SDS011;47555;51.038;6.280;2023-04-03T02:10:58;15.15;;;10.35;;
25153;SDS011;47555;51.038;6.280;2023-04-03T02:13:23;12.93;;;8.60;;
25153;SDS011;47555;51.038;6.280;2023-04-03T02:15:49;11.10;;;7.63;;
25153;SDS011;47555;51.038;6.280;2023-04-03T02:18:15;9.05;;;6.57;;
25153;SDS011;47555;51.038;6.280;2023-04-03T02:20:41;10.90;;;7.38;;
25153;SDS011;47555;51.038;6.280;2023-04-03T02:23:06;12.30;;;7.63;;
25153;SDS011;47555;51.038;6.280;2023-04-03T02:25:32;8.32;;;6.72;;
25153;SDS011;47555;51.038;6.280;2023-04-03T02:27:58;10.43;;;6.82;;
25153;SDS011;47555;51.038;6.280;2023-04-03T02:30:24;10.43;;;6.38;;
25153;SDS011;47555;51.038;6.280;2023-04-03T02:32:50;12.75;;;6.50;;
25153;SDS011;47555;51.038;6.280;2023-04-03T02:35:15;8.48;;;6.32;;
25153;SDS011;47555;51.038;6.280;2023-04-03T02:37:41;9.35;;;6.05;;
25153;SDS011;47555;51.038;6.280;2023-04-03T02:40:08;8.43;;;6.28;;
25153;SDS011;47555;51.038;6.280;2023-04-03T02:42:33;12.50;;;6.78;;
25153;SDS011;47555;51.038;6.280;2023-04-03T02:44:59;11.38;;;6.82;;
25153;SDS011;47555;51.038;6.280;2023-04-03T02:47:25;9.43;;;6.72;;
25153;SDS011;47555;51.038;6.280;2023-04-03T02:49:51;9.68;;;6.03;;
25153;SDS011;47555;51.038;6.280;2023-04-03T02:52:17;10.65;;;6.82;;
25153;SDS011;47555;51.038;6.280;2023-04-03T02:54:43;10.13;;;7.30;;
25153;SDS011;47555;51.038;6.280;2023-04-03T02:57:09;12.85;;;6.90;;
25153;SDS011;47555;51.038;6.280;2023-04-03T02:59:38;13.10;;;8.02;;
25153;SDS011;47555;51.038;6.280;2023-04-03T03:02:07;12.70;;;8.48;;
25153;SDS011;47555;51.038;6.280;2023-04-03T03:04:33;10.18;;;7.35;;
25153;SDS011;47555;51.038;6.280;2023-04-03T03:06:59;10.93;;;7.55;;
25153;SDS011;47555;51.038;6.280;2023-04-03T03:09:25;8.85;;;6.45;;
25153;SDS011;47555;51.038;6.280;2023-04-03T03:11:51;11.43;;;7.20;;
25153;SDS011;47555;51.038;6.280;2023-04-03T03:14:17;10.27;;;6.60;;
25153;SDS011;47555;51.038;6.280;2023-04-03T03:16:43;9.90;;;6.78;;
25153;SDS011;47555;51.038;6.280;2023-04-03T03:19:09;11.63;;;7.05;;
25153;SDS011;47555;51.038;6.280;2023-04-03T03:21:35;10.73;;;6.18;;
25153;SDS011;47555;51.038;6.280;2023-04-03T03:24:01;11.80;;;7.13;;
25153;SDS011;47555;51.038;6.280;2023-04-03T03:26:26;12.80;;;7.35;;
25153;SDS011;47555;51.038;6.280;2023-04-03T03:28:52;9.70;;;6.40;;
25153;SDS011;47555;51.038;6.280;2023-04-03T03:31:18;10.02;;;6.93;;
25153;SDS011;47555;51.038;6.280;2023-04-03T03:33:43;12.05;;;7.35;;
25153;SDS011;47555;51.038;6.280;2023-04-03T03:36:09;9.82;;;7.18;;
25153;SDS011;47555;51.038;6.280;2023-04-03T03:38:36;12.48;;;7.15;;
25153;SDS011;47555;51.038;6.280;2023-04-03T03:41:01;9.27;;;7.15;;
25153;SDS011;47555;51.038;6.280;2023-04-03T03:43:27;12.30;;;7.10;;
25153;SDS011;47555;51.038;6.280;2023-04-03T03:45:53;11.13;;;7.28;;
25153;SDS011;47555;51.038;6.280;2023-04-03T03:48:19;10.95;;;7.40;;
25153;SDS011;47555;51.038;6.280;2023-04-03T03:50:45;10.75;;;7.05;;
25153;SDS011;47555;51.038;6.280;2023-04-03T03:53:11;9.77;;;7.47;;
25153;SDS011;47555;51.038;6.280;2023-04-03T03:55:37;10.25;;;7.15;;
25153;SDS011;47555;51.038;6.280;2023-04-03T03:58:02;10.93;;;6.68;;
25153;SDS011;47555;51.038;6.280;2023-04-03T04:00:28;11.73;;;7.32;;
25153;SDS011;47555;51.038;6.280;2023-04-03T04:02:55;9.98;;;7.30;;
25153;SDS011;47555;51.038;6.280;2023-04-03T04:05:20;10.63;;;7.07;;
25153;SDS011;47555;51.038;6.280;2023-04-03T04:07:46;12.10;;;7.88;;
25153;SDS011;47555;51.038;6.280;2023-04-03T04:10:12;16.38;;;8.43;;
25153;SDS011;47555;51.038;6.280;2023-04-03T04:12:38;13.93;;;7.30;;
25153;SDS011;47555;51.038;6.280;2023-04-03T04:15:04;11.23;;;7.45;;
25153;SDS011;47555;51.038;6.280;2023-04-03T04:17:30;12.48;;;8.40;;
25153;SDS011;47555;51.038;6.280;2023-04-03T04:19:56;10.02;;;7.30;;
25153;SDS011;47555;51.038;6.280;2023-04-03T04:22:22;10.10;;;6.90;;
25153;SDS011;47555;51.038;6.280;2023-04-03T04:24:47;13.25;;;7.85;;
25153;SDS011;47555;51.038;6.280;2023-04-03T04:27:13;14.73;;;7.72;;
25153;SDS011;47555;51.038;6.280;2023-04-03T04:29:40;10.68;;;7.32;;
25153;SDS011;47555;51.038;6.280;2023-04-03T04:32:06;11.68;;;8.25;;
25153;SDS011;47555;51.038;6.280;2023-04-03T04:34:31;11.20;;;7.03;;
25153;SDS011;47555;51.038;6.280;2023-04-03T04:36:57;10.73;;;7.72;;
25153;SDS011;47555;51.038;6.280;2023-04-03T04:39:23;11.32;;;8.10;;
25153;SDS011;47555;51.038;6.280;2023-04-03T04:41:49;10.82;;;7.18;;
25153;SDS011;47555;51.038;6.280;2023-04-03T04:44:14;9.75;;;7.70;;
25153;SDS011;47555;51.038;6.280;2023-04-03T04:46:40;14.48;;;8.52;;
25153;SDS011;47555;51.038;6.280;2023-04-03T04:49:06;12.13;;;8.32;;
25153;SDS011;47555;51.038;6.280;2023-04-03T04:51:32;11.75;;;7.80;;
25153;SDS011;47555;51.038;6.280;2023-04-03T04:53:57;12.55;;;7.75;;
25153;SDS011;47555;51.038;6.280;2023-04-03T04:56:23;13.25;;;7.90;;
25153;SDS011;47555;51.038;6.280;2023-04-03T04:58:48;13.90;;;8.40;;
25153;SDS011;47555;51.038;6.280;2023-04-03T05:01:14;12.25;;;8.50;;
25153;SDS011;47555;51.038;6.280;2023-04-03T05:03:40;11.55;;;8.05;;
25153;SDS011;47555;51.038;6.280;2023-04-03T05:06:05;12.90;;;8.90;;
25153;SDS011;47555;51.038;6.280;2023-04-03T05:08:31;16.75;;;9.57;;
25153;SDS011;47555;51.038;6.280;2023-04-03T05:10:57;19.40;;;10.73;;
25153;SDS011;47555;51.038;6.280;2023-04-03T05:13:22;13.68;;;10.02;;
25153;SDS011;47555;51.038;6.280;2023-04-03T05:15:48;17.17;;;9.57;;
25153;SDS011;47555;51.038;6.280;2023-04-03T05:18:13;19.92;;;9.18;;
25153;SDS011;47555;51.038;6.280;2023-04-03T05:20:39;16.75;;;9.30;;
25153;SDS011;47555;51.038;6.280;2023-04-03T05:23:05;18.70;;;11.07;;
25153;SDS011;47555;51.038;6.280;2023-04-03T05:25:31;15.43;;;9.40;;
25153;SDS011;47555;51.038;6.280;2023-04-03T05:27:56;11.70;;;7.95;;
25153;SDS011;47555;51.038;6.280;2023-04-03T05:30:22;13.98;;;8.73;;
25153;SDS011;47555;51.038;6.280;2023-04-03T05:32:47;15.48;;;9.77;;
25153;SDS011;47555;51.038;6.280;2023-04-03T05:35:13;12.70;;;7.70;;
25153;SDS011;47555;51.038;6.280;2023-04-03T05:37:39;12.70;;;7.57;;
25153;SDS011;47555;51.038;6.280;2023-04-03T05:40:05;12.10;;;6.97;;
25153;SDS011;47555;51.038;6.280;2023-04-03T05:42:32;9.93;;;6.28;;
25153;SDS011;47555;51.038;6.280;2023-04-03T05:44:57;11.63;;;6.00;;
25153;SDS011;47555;51.038;6.280;2023-04-03T05:47:23;8.00;;;5.72;;
25153;SDS011;47555;51.038;6.280;2023-04-03T05:49:49;8.57;;;5.60;;
25153;SDS011;47555;51.038;6.280;2023-04-03T05:52:23;6.82;;;4.78;;
25153;SDS011;47555;51.038;6.280;2023-04-03T05:54:55;9.18;;;5.25;;
25153;SDS011;47555;51.038;6.280;2023-04-03T05:57:21;7.13;;;5.07;;
25153;SDS011;47555;51.038;6.280;2023-04-03T05:59:47;6.75;;;4.32;;
25153;SDS011;47555;51.038;6.280;2023-04-03T06:02:15;7.38;;;4.72;;
25153;SDS011;47555;51.038;6.280;2023-04-03T06:04:43;8.07;;;4.63;;
25153;SDS011;47555;51.038;6.280;2023-04-03T06:07:10;6.30;;;4.25;;
25153;SDS011;47555;51.038;6.280;2023-04-03T06:09:38;11.60;;;4.68;;
25153;SDS011;47555;51.038;6.280;2023-04-03T06:12:03;8.15;;;4.75;;
25153;SDS011;47555;51.038;6.280;2023-04-03T06:14:29;10.93;;;4.60;;
25153;SDS011;47555;51.038;6.280;2023-04-03T06:16:54;9.73;;;4.40;;
25153;SDS011;47555;51.038;6.280;2023-04-03T06:19:20;7.65;;;4.35;;
25153;SDS011;47555;51.038;6.280;2023-04-03T06:21:46;7.68;;;4.70;;
25153;SDS011;47555;51.038;6.280;2023-04-03T06:24:15;6.43;;;4.10;;
25153;SDS011;47555;51.038;6.280;2023-04-03T06:26:42;8.23;;;5.00;;
25153;SDS011;47555;51.038;6.280;2023-04-03T06:29:08;7.95;;;4.47;;
25153;SDS011;47555;51.038;6.280;2023-04-03T06:31:34;7.78;;;4.65;;
25153;SDS011;47555;51.038;6.280;2023-04-03T06:34:01;6.60;;;4.90;;
25153;SDS011;47555;51.038;6.280;2023-04-03T06:36:27;9.60;;;5.35;;
25153;SDS011;47555;51.038;6.280;2023-04-03T06:38:53;6.82;;;5.43;;
25153;SDS011;47555;51.038;6.280;2023-04-03T06:41:19;6.10;;;4.80;;
25153;SDS011;47555;51.038;6.280;2023-04-03T06:43:46;7.57;;;4.85;;
25153;SDS011;47555;51.038;6.280;2023-04-03T06:46:21;8.90;;;5.38;;
25153;SDS011;47555;51.038;6.280;2023-04-03T06:48:47;7.97;;;5.03;;
25153;SDS011;47555;51.038;6.280;2023-04-03T06:51:18;9.65;;;5.28;;
25153;SDS011;47555;51.038;6.280;2023-04-03T06:53:46;8.10;;;4.43;;
25153;SDS011;47555;51.038;6.280;2023-04-03T06:56:13;7.80;;;4.50;;
25153;SDS011;47555;51.038;6.280;2023-04-03T06:58:39;8.65;;;4.03;;
25153;SDS011;47555;51.038;6.280;2023-04-03T07:01:05;6.82;;;4.15;;
25153;SDS011;47555;51.038;6.280;2023-04-03T07:03:31;6.03;;;4.25;;
25153;SDS011;47555;51.038;6.280;2023-04-03T07:05:56;4.65;;;3.72;;
25153;SDS011;47555;51.038;6.280;2023-04-03T07:08:22;6.25;;;4.15;;
25153;SDS011;47555;51.038;6.280;2023-04-03T07:10:48;5.82;;;3.97;;
25153;SDS011;47555;51.038;6.280;2023-04-03T07:13:15;6.35;;;4.00;;
25153;SDS011;47555;51.038;6.280;2023-04-03T07:15:40;5.25;;;4.10;;
25153;SDS011;47555;51.038;6.280;2023-04-03T07:18:06;5.65;;;4.57;;
25153;SDS011;47555;51.038;6.280;2023-04-03T07:20:31;9.18;;;3.95;;
25153;SDS011;47555;51.038;6.280;2023-04-03T07:22:57;4.05;;;3.63;;
25153;SDS011;47555;51.038;6.280;2023-04-03T07:25:22;8.35;;;3.65;;
25153;SDS011;47555;51.038;6.280;2023-04-03T07:27:48;6.55;;;3.70;;
25153;SDS011;47555;51.038;6.280;2023-04-03T07:30:14;6.57;;;4.03;;
25153;SDS011;47555;51.038;6.280;2023-04-03T07:32:40;5.70;;;4.30;;
25153;SDS011;47555;51.038;6.280;2023-04-03T07:35:06;7.13;;;3.90;;
25153;SDS011;47555;51.038;6.280;2023-04-03T07:37:31;6.53;;;3.97;;
25153;SDS011;47555;51.038;6.280;2023-04-03T07:39:57;5.93;;;4.13;;
25153;SDS011;47555;51.038;6.280;2023-04-03T07:42:24;6.13;;;4.53;;
25153;SDS011;47555;51.038;6.280;2023-04-03T07:44:51;6.82;;;4.25;;
25153;SDS011;47555;51.038;6.280;2023-04-03T07:47:17;8.20;;;3.95;;
25153;SDS011;47555;51.038;6.280;2023-04-03T07:49:43;4.35;;;3.42;;
25153;SDS011;47555;51.038;6.280;2023-04-03T07:52:08;9.50;;;3.92;;
25153;SDS011;47555;51.038;6.280;2023-04-03T07:54:34;6.53;;;4.00;;
25153;SDS011;47555;51.038;6.280;2023-04-03T07:57:00;7.57;;;3.97;;
25153;SDS011;47555;51.038;6.280;2023-04-03T07:59:26;10.73;;;4.72;;
25153;SDS011;47555;51.038;6.280;2023-04-03T08:01:51;9.13;;;4.03;;
25153;SDS011;47555;51.038;6.280;2023-04-03T08:04:17;9.30;;;4.10;;
25153;SDS011;47555;51.038;6.280;2023-04-03T08:06:43;4.82;;;3.30;;
25153;SDS011;47555;51.038;6.280;2023-04-03T08:09:08;6.05;;;3.50;;
25153;SDS011;47555;51.038;6.280;2023-04-03T08:11:34;4.70;;;3.20;;
25153;SDS011;47555;51.038;6.280;2023-04-03T08:14:01;2.80;;;2.47;;
25153;SDS011;47555;51.038;6.280;2023-04-03T08:16:27;7.40;;;3.13;;
25153;SDS011;47555;51.038;6.280;2023-04-03T08:18:53;6.43;;;3.13;;
25153;SDS011;47555;51.038;6.280;2023-04-03T08:21:20;7.25;;;3.13;;
25153;SDS011;47555;51.038;6.280;2023-04-03T08:23:48;4.03;;;2.30;;
25153;SDS011;47555;51.038;6.280;2023-04-03T08:26:16;2.55;;;2.13;;
25153;SDS011;47555;51.038;6.280;2023-04-03T08:28:44;6.00;;;2.63;;
25153;SDS011;47555;51.038;6.280;2023-04-03T08:31:11;5.93;;;2.85;;
25153;SDS011;47555;51.038;6.280;2023-04-03T08:33:39;4.55;;;2.60;;
25153;SDS011;47555;51.038;6.280;2023-04-03T08:36:05;7.70;;;3.15;;
25153;SDS011;47555;51.038;6.280;2023-04-03T08:38:33;3.92;;;2.20;;
25153;SDS011;47555;51.038;6.280;2023-04-03T08:41:02;3.72;;;2.35;;
25153;SDS011;47555;51.038;6.280;2023-04-03T08:43:53;6.57;;;3.08;;
25153;SDS011;47555;51.038;6.280;2023-04-03T08:49:26;5.63;;;2.33;;
25153;SDS011;47555;51.038;6.280;2023-04-03T08:51:53;5.70;;;2.60;;
25153;SDS011;47555;51.038;6.280;2023-04-03T08:54:53;4.10;;;2.40;;
25153;SDS011;47555;51.038;6.280;2023-04-03T08:57:16;5.25;;;1.80;;
25153;SDS011;47555;51.038;6.280;2023-04-03T08:59:45;3.17;;;1.77;;
25153;SDS011;47555;51.038;6.280;2023-04-03T09:02:24;3.53;;;1.50;;
25153;SDS011;47555;51.038;6.280;2023-04-03T09:04:58;5.75;;;1.70;;
25153;SDS011;47555;51.038;6.280;2023-04-03T09:07:33;3.55;;;1.48;;
25153;SDS011;47555;51.038;6.280;2023-04-03T09:10:27;6.70;;;1.80;;
25153;SDS011;47555;51.038;6.280;2023-04-03T09:13:00;3.08;;;1.40;;
25153;SDS011;47555;51.038;6.280;2023-04-03T09:15:37;4.82;;;1.63;;
25153;SDS011;47555;51.038;6.280;2023-04-03T09:18:03;3.85;;;1.88;;
25153;SDS011;47555;51.038;6.280;2023-04-03T09:20:42;2.60;;;1.30;;
25153;SDS011;47555;51.038;6.280;2023-04-03T09:23:22;1.83;;;1.45;;
25153;SDS011;47555;51.038;6.280;2023-04-03T09:26:05;9.80;;;1.88;;
25153;SDS011;47555;51.038;6.280;2023-04-03T09:28:39;3.08;;;1.67;;
25153;SDS011;47555;51.038;6.280;2023-04-03T09:34:15;3.85;;;1.70;;
25153;SDS011;47555;51.038;6.280;2023-04-03T09:36:46;2.58;;;1.35;;
25153;SDS011;47555;51.038;6.280;2023-04-03T09:39:17;3.97;;;3.03;;
25153;SDS011;47555;51.038;6.280;2023-04-03T09:41:55;3.50;;;2.22;;
25153;SDS011;47555;51.038;6.280;2023-04-03T09:44:33;6.43;;;2.30;;
25153;SDS011;47555;51.038;6.280;2023-04-03T09:47:16;2.15;;;1.35;;
25153;SDS011;47555;51.038;6.280;2023-04-03T09:49:49;2.33;;;0.90;;
25153;SDS011;47555;51.038;6.280;2023-04-03T09:52:24;1.20;;;1.10;;
25153;SDS011;47555;51.038;6.280;2023-04-03T09:54:51;2.97;;;1.15;;
25153;SDS011;47555;51.038;6.280;2023-04-03T09:57:16;2.42;;;1.33;;
25153;SDS011;47555;51.038;6.280;2023-04-03T09:59:45;2.78;;;1.00;;
25153;SDS011;47555;51.038;6.280;2023-04-03T10:04:57;2.15;;;1.23;;
25153;SDS011;47555;51.038;6.280;2023-04-03T10:10:10;1.90;;;1.17;;
25153;SDS011;47555;51.038;6.280;2023-04-03T10:12:41;2.28;;;1.30;;
25153;SDS011;47555;51.038;6.280;2023-04-03T10:15:11;5.10;;;1.25;;
25153;SDS011;47555;51.038;6.280;2023-04-03T10:20:30;7.43;;;2.40;;
25153;SDS011;47555;51.038;6.280;2023-04-03T10:32:00;1.63;;;1.00;;
25153;SDS011;47555;51.038;6.280;2023-04-03T10:34:37;2.80;;;1.02;;
25153;SDS011;47555;51.038;6.280;2023-04-03T10:37:27;3.40;;;1.10;;
25153;SDS011;47555;51.038;6.280;2023-04-03T10:40:15;1.90;;;1.40;;
25153;SDS011;47555;51.038;6.280;2023-04-03T10:43:14;2.10;;;1.00;;
25153;SDS011;47555;51.038;6.280;2023-04-03T10:48:17;2.53;;;1.13;;
25153;SDS011;47555;51.038;6.280;2023-04-03T10:51:05;5.13;;;1.20;;
25153;SDS011;47555;51.038;6.280;2023-04-03T10:53:56;3.85;;;1.23;;
25153;SDS011;47555;51.038;6.280;2023-04-03T11:01:59;3.85;;;1.50;;
25153;SDS011;47555;51.038;6.280;2023-04-03T11:04:30;3.13;;;1.65;;
25153;SDS011;47555;51.038;6.280;2023-04-03T11:07:10;4.68;;;1.80;;
25153;SDS011;47555;51.038;6.280;2023-04-03T11:09:48;2.40;;;1.90;;
25153;SDS011;47555;51.038;6.280;2023-04-03T11:12:18;2.50;;;1.83;;
25153;SDS011;47555;51.038;6.280;2023-04-03T11:15:03;2.92;;;1.20;;
25153;SDS011;47555;51.038;6.280;2023-04-03T11:17:36;1.50;;;0.88;;
25153;SDS011;47555;51.038;6.280;2023-04-03T11:22:50;3.83;;;1.48;;
25153;SDS011;47555;51.038;6.280;2023-04-03T11:25:20;4.68;;;1.27;;
25153;SDS011;47555;51.038;6.280;2023-04-03T11:30:44;2.72;;;1.40;;
25153;SDS011;47555;51.038;6.280;2023-04-03T11:33:28;2.10;;;1.27;;
25153;SDS011;47555;51.038;6.280;2023-04-03T11:36:02;5.93;;;1.20;;
25153;SDS011;47555;51.038;6.280;2023-04-03T11:38:36;2.20;;;1.20;;
25153;SDS011;47555;51.038;6.280;2023-04-03T11:41:07;2.65;;;1.20;;
25153;SDS011;47555;51.038;6.280;2023-04-03T11:43:36;3.13;;;1.50;;
25153;SDS011;47555;51.038;6.280;2023-04-03T11:46:48;1.52;;;1.17;;
25153;SDS011;47555;51.038;6.280;2023-04-03T11:53:02;1.80;;;1.33;;
25153;SDS011;47555;51.038;6.280;2023-04-03T12:19:03;4.00;;;1.10;;
25153;SDS011;47555;51.038;6.280;2023-04-03T12:24:29;2.78;;;1.50;;
25153;SDS011;47555;51.038;6.280;2023-04-03T12:45:50;1.42;;;1.30;;
25153;SDS011;47555;51.038;6.280;2023-04-03T12:48:25;1.85;;;1.08;;
25153;SDS011;47555;51.038;6.280;2023-04-03T12:50:52;3.40;;;1.20;;
25153;SDS011;47555;51.038;6.280;2023-04-03T12:55:47;3.65;;;1.30;;
25153;SDS011;47555;51.038;6.280;2023-04-03T12:58:22;3.08;;;1.33;;
25153;SDS011;47555;51.038;6.280;2023-04-03T13:01:11;3.03;;;1.05;;
25153;SDS011;47555;51.038;6.280;2023-04-03T13:03:38;1.73;;;1.35;;
25153;SDS011;47555;51.038;6.280;2023-04-03T13:06:11;1.38;;;1.00;;
25153;SDS011;47555;51.038;6.280;2023-04-03T13:08:53;2.92;;;1.20;;
25153;SDS011;47555;51.038;6.280;2023-04-03T13:11:24;3.20;;;1.00;;
25153;SDS011;47555;51.038;6.280;2023-04-03T13:13:56;2.13;;;0.95;;
25153;SDS011;47555;51.038;6.280;2023-04-03T13:16:27;1.40;;;1.20;;
25153;SDS011;47555;51.038;6.280;2023-04-03T13:18:53;2.30;;;1.40;;
25153;SDS011;47555;51.038;6.280;2023-04-03T13:21:21;2.42;;;1.33;;
25153;SDS011;47555;51.038;6.280;2023-04-03T13:23:56;2.15;;;1.40;;
25153;SDS011;47555;51.038;6.280;2023-04-03T13:26:25;1.73;;;1.13;;
25153;SDS011;47555;51.038;6.280;2023-04-03T13:28:54;1.48;;;1.10;;
25153;SDS011;47555;51.038;6.280;2023-04-03T13:31:24;1.10;;;1.00;;
25153;SDS011;47555;51.038;6.280;2023-04-03T13:33:54;1.45;;;1.10;;
25153;SDS011;47555;51.038;6.280;2023-04-03T13:36:21;2.25;;;1.25;;
25153;SDS011;47555;51.038;6.280;2023-04-03T13:39:00;1.58;;;1.13;;
25153;SDS011;47555;51.038;6.280;2023-04-03T13:41:36;1.40;;;0.97;;
25153;SDS011;47555;51.038;6.280;2023-04-03T13:46:51;4.30;;;1.38;;
25153;SDS011;47555;51.038;6.280;2023-04-03T13:49:19;4.93;;;2.55;;
25153;SDS011;47555;51.038;6.280;2023-04-03T13:51:46;3.22;;;1.50;;
25153;SDS011;47555;51.038;6.280;2023-04-03T13:54:23;2.58;;;1.10;;
25153;SDS011;47555;51.038;6.280;2023-04-03T13:56:57;1.48;;;1.05;;
25153;SDS011;47555;51.038;6.280;2023-04-03T13:59:28;1.10;;;0.88;;
25153;SDS011;47555;51.038;6.280;2023-04-03T14:04:29;2.22;;;1.00;;
25153;SDS011;47555;51.038;6.280;2023-04-03T14:06:57;3.33;;;1.00;;
25153;SDS011;47555;51.038;6.280;2023-04-03T14:09:24;2.75;;;1.30;;
25153;SDS011;47555;51.038;6.280;2023-04-03T14:11:53;3.05;;;1.30;;
25153;SDS011;47555;51.038;6.280;2023-04-03T14:14:23;2.23;;;1.00;;
25153;SDS011;47555;51.038;6.280;2023-04-03T14:16:53;2.20;;;1.23;;
25153;SDS011;47555;51.038;6.280;2023-04-03T14:19:30;3.22;;;1.60;;
25153;SDS011;47555;51.038;6.280;2023-04-03T14:21:58;2.55;;;1.38;;
25153;SDS011;47555;51.038;6.280;2023-04-03T14:24:25;2.42;;;1.23;;
25153;SDS011;47555;51.038;6.280;2023-04-03T14:26:52;4.57;;;1.35;;
25153;SDS011;47555;51.038;6.280;2023-04-03T14:29:19;3.78;;;1.00;;
25153;SDS011;47555;51.038;6.280;2023-04-03T14:31:47;2.13;;;1.10;;
25153;SDS011;47555;51.038;6.280;2023-04-03T14:34:14;3.78;;;1.73;;
25153;SDS011;47555;51.038;6.280;2023-04-03T14:36:40;1.58;;;1.27;;
25153;SDS011;47555;51.038;6.280;2023-04-03T14:39:10;2.15;;;0.90;;
25153;SDS011;47555;51.038;6.280;2023-04-03T14:41:41;1.60;;;1.50;;
25153;SDS011;47555;51.038;6.280;2023-04-03T14:44:07;1.58;;;1.10;;
25153;SDS011;47555;51.038;6.280;2023-04-03T14:46:34;1.48;;;1.20;;
25153;SDS011;47555;51.038;6.280;2023-04-03T14:49:03;1.27;;;1.17;;
25153;SDS011;47555;51.038;6.280;2023-04-03T14:51:37;3.33;;;1.27;;
25153;SDS011;47555;51.038;6.280;2023-04-03T14:54:03;1.55;;;1.00;;
25153;SDS011;47555;51.038;6.280;2023-04-03T14:56:28;1.90;;;1.30;;
25153;SDS011;47555;51.038;6.280;2023-04-03T14:58:58;2.78;;;1.38;;
25153;SDS011;47555;51.038;6.280;2023-04-03T15:01:26;2.10;;;1.10;;
25153;SDS011;47555;51.038;6.280;2023-04-03T15:03:52;2.35;;;1.20;;
25153;SDS011;47555;51.038;6.280;2023-04-03T15:06:18;6.28;;;1.77;;
25153;SDS011;47555;51.038;6.280;2023-04-03T15:08:44;3.92;;;1.45;;
25153;SDS011;47555;51.038;6.280;2023-04-03T15:11:12;4.85;;;1.45;;
25153;SDS011;47555;51.038;6.280;2023-04-03T15:13:39;2.38;;;1.15;;
25153;SDS011;47555;51.038;6.280;2023-04-03T15:16:26;3.03;;;1.30;;
25153;SDS011;47555;51.038;6.280;2023-04-03T15:18:51;1.95;;;1.50;;
25153;SDS011;47555;51.038;6.280;2023-04-03T15:21:17;1.80;;;1.20;;
25153;SDS011;47555;51.038;6.280;2023-04-03T15:23:42;3.30;;;1.48;;
25153;SDS011;47555;51.038;6.280;2023-04-03T15:26:08;3.00;;;1.38;;
25153;SDS011;47555;51.038;6.280;2023-04-03T15:28:35;3.38;;;1.48;;
25153;SDS011;47555;51.038;6.280;2023-04-03T15:31:03;1.15;;;1.00;;
25153;SDS011;47555;51.038;6.280;2023-04-03T15:33:29;5.15;;;1.48;;
25153;SDS011;47555;51.038;6.280;2023-04-03T15:35:55;2.97;;;1.20;;
25153;SDS011;47555;51.038;6.280;2023-04-03T15:38:21;3.13;;;1.45;;
25153;SDS011;47555;51.038;6.280;2023-04-03T15:40:46;2.25;;;1.50;;
25153;SDS011;47555;51.038;6.280;2023-04-03T15:43:13;4.57;;;1.50;;
25153;SDS011;47555;51.038;6.280;2023-04-03T15:45:39;3.67;;;1.40;;
25153;SDS011;47555;51.038;6.280;2023-04-03T15:48:05;2.70;;;1.48;;
25153;SDS011;47555;51.038;6.280;2023-04-03T15:50:31;2.05;;;1.20;;
25153;SDS011;47555;51.038;6.280;2023-04-03T15:52:58;2.53;;;1.23;;
25153;SDS011;47555;51.038;6.280;2023-04-03T15:55:24;1.83;;;1.13;;
25153;SDS011;47555;51.038;6.280;2023-04-03T15:57:51;1.95;;;1.55;;
25153;SDS011;47555;51.038;6.280;2023-04-03T16:00:17;3.10;;;1.73;;
25153;SDS011;47555;51.038;6.280;2023-04-03T16:02:43;1.38;;;1.20;;
25153;SDS011;47555;51.038;6.280;2023-04-03T16:05:11;2.53;;;1.05;;
25153;SDS011;47555;51.038;6.280;2023-04-03T16:07:40;3.17;;;1.80;;
25153;SDS011;47555;51.038;6.280;2023-04-03T16:10:07;4.95;;;1.40;;
25153;SDS011;47555;51.038;6.280;2023-04-03T16:12:34;3.90;;;1.50;;
25153;SDS011;47555;51.038;6.280;2023-04-03T16:14:59;2.25;;;1.25;;
25153;SDS011;47555;51.038;6.280;2023-04-03T16:17:25;3.22;;;1.77;;
25153;SDS011;47555;51.038;6.280;2023-04-03T16:19:52;3.03;;;1.63;;
25153;SDS011;47555;51.038;6.280;2023-04-03T16:22:18;4.00;;;1.30;;
25153;SDS011;47555;51.038;6.280;2023-04-03T16:24:44;2.90;;;1.50;;
25153;SDS011;47555;51.038;6.280;2023-04-03T16:27:10;1.95;;;1.42;;
25153;SDS011;47555;51.038;6.280;2023-04-03T16:29:35;2.20;;;1.27;;